sensor_id;sensor_type;location;lat;lon;timestamp;P1;durP1;ratioP1;P2;durP2;ratioP2
38567;SDS011;24338;48.280;10.970;2022-10-16T00:02:09;5.05;;;1.90;;
38567;SDS011;24338;48.280;10.970;2022-10-16T00:04:36;2.97;;;1.42;;
38567;SDS011;24338;48.280;10.970;2022-10-16T00:07:03;5.05;;;1.77;;
38567;SDS011;24338;48.280;10.970;2022-10-16T00:09:29;4.00;;;1.80;;
38567;SDS011;24338;48.280;10.970;2022-10-16T00:11:56;3.92;;;1.48;;
38567;SDS011;24338;48.280;10.970;2022-10-16T00:14:23;3.40;;;1.88;;
38567;SDS011;24338;48.280;10.970;2022-10-16T00:16:50;8.55;;;2.42;;
38567;SDS011;24338;48.280;10.970;2022-10-16T00:19:17;5.25;;;3.00;;
38567;SDS011;24338;48.280;10.970;2022-10-16T00:21:43;5.80;;;2.95;;
38567;SDS011;24338;48.280;10.970;2022-10-16T00:24:10;4.88;;;2.90;;
38567;SDS011;24338;48.280;10.970;2022-10-16T00:26:38;6.00;;;2.63;;
38567;SDS011;24338;48.280;10.970;2022-10-16T00:29:05;5.30;;;2.58;;
38567;SDS011;24338;48.280;10.970;2022-10-16T00:31:32;4.43;;;2.47;;
38567;SDS011;24338;48.280;10.970;2022-10-16T00:33:59;3.75;;;2.25;;
38567;SDS011;24338;48.280;10.970;2022-10-16T00:36:26;4.80;;;2.10;;
38567;SDS011;24338;48.280;10.970;2022-10-16T00:38:54;4.85;;;1.98;;
38567;SDS011;24338;48.280;10.970;2022-10-16T00:41:23;5.60;;;2.22;;
38567;SDS011;24338;48.280;10.970;2022-10-16T00:43:56;3.45;;;1.83;;
38567;SDS011;24338;48.280;10.970;2022-10-16T00:52:01;3.13;;;1.58;;
38567;SDS011;24338;48.280;10.970;2022-10-16T00:54:22;3.80;;;1.73;;
38567;SDS011;24338;48.280;10.970;2022-10-16T00:56:51;4.53;;;1.60;;
38567;SDS011;24338;48.280;10.970;2022-10-16T00:59:21;5.10;;;1.55;;
38567;SDS011;24338;48.280;10.970;2022-10-16T01:01:52;5.00;;;1.35;;
38567;SDS011;24338;48.280;10.970;2022-10-16T01:04:20;5.30;;;1.70;;
38567;SDS011;24338;48.280;10.970;2022-10-16T01:06:55;2.47;;;1.20;;
38567;SDS011;24338;48.280;10.970;2022-10-16T01:15:50;2.83;;;1.38;;
38567;SDS011;24338;48.280;10.970;2022-10-16T01:17:56;3.15;;;0.80;;
38567;SDS011;24338;48.280;10.970;2022-10-16T01:20:53;2.50;;;1.25;;
38567;SDS011;24338;48.280;10.970;2022-10-16T01:28:51;3.05;;;1.30;;
38567;SDS011;24338;48.280;10.970;2022-10-16T01:31:23;3.80;;;0.80;;
38567;SDS011;24338;48.280;10.970;2022-10-16T01:33:56;2.95;;;1.23;;
38567;SDS011;24338;48.280;10.970;2022-10-16T01:36:37;3.45;;;1.17;;
38567;SDS011;24338;48.280;10.970;2022-10-16T01:39:08;3.50;;;1.30;;
38567;SDS011;24338;48.280;10.970;2022-10-16T01:41:41;2.90;;;1.70;;
38567;SDS011;24338;48.280;10.970;2022-10-16T01:44:20;2.42;;;1.00;;
38567;SDS011;24338;48.280;10.970;2022-10-16T01:46:51;2.75;;;1.13;;
38567;SDS011;24338;48.280;10.970;2022-10-16T01:49:20;4.20;;;1.10;;
38567;SDS011;24338;48.280;10.970;2022-10-16T01:51:50;3.42;;;0.80;;
38567;SDS011;24338;48.280;10.970;2022-10-16T01:54:21;6.47;;;1.33;;
38567;SDS011;24338;48.280;10.970;2022-10-16T01:56:51;3.40;;;1.13;;
38567;SDS011;24338;48.280;10.970;2022-10-16T01:59:20;2.25;;;0.90;;
38567;SDS011;24338;48.280;10.970;2022-10-16T02:01:51;2.92;;;0.90;;
38567;SDS011;24338;48.280;10.970;2022-10-16T02:04:32;3.28;;;1.15;;
38567;SDS011;24338;48.280;10.970;2022-10-16T02:07:04;3.85;;;1.52;;
38567;SDS011;24338;48.280;10.970;2022-10-16T02:09:33;2.38;;;1.10;;
38567;SDS011;24338;48.280;10.970;2022-10-16T02:12:03;2.95;;;0.90;;
38567;SDS011;24338;48.280;10.970;2022-10-16T02:14:37;2.58;;;0.90;;
38567;SDS011;24338;48.280;10.970;2022-10-16T02:17:15;3.95;;;1.23;;
38567;SDS011;24338;48.280;10.970;2022-10-16T02:19:44;2.13;;;1.20;;
38567;SDS011;24338;48.280;10.970;2022-10-16T02:22:15;3.78;;;1.25;;
38567;SDS011;24338;48.280;10.970;2022-10-16T02:30:45;2.42;;;0.77;;
38567;SDS011;24338;48.280;10.970;2022-10-16T02:33:16;2.50;;;0.90;;
38567;SDS011;24338;48.280;10.970;2022-10-16T02:35:46;3.33;;;0.93;;
38567;SDS011;24338;48.280;10.970;2022-10-16T02:38:15;4.45;;;1.10;;
38567;SDS011;24338;48.280;10.970;2022-10-16T02:40:43;2.25;;;1.10;;
38567;SDS011;24338;48.280;10.970;2022-10-16T02:43:10;3.67;;;1.08;;
38567;SDS011;24338;48.280;10.970;2022-10-16T02:45:38;5.05;;;1.67;;
38567;SDS011;24338;48.280;10.970;2022-10-16T02:48:05;3.70;;;0.88;;
38567;SDS011;24338;48.280;10.970;2022-10-16T02:50:32;4.38;;;1.38;;
38567;SDS011;24338;48.280;10.970;2022-10-16T02:52:59;3.65;;;1.45;;
38567;SDS011;24338;48.280;10.970;2022-10-16T02:55:27;5.13;;;1.48;;
38567;SDS011;24338;48.280;10.970;2022-10-16T02:57:54;2.25;;;1.10;;
38567;SDS011;24338;48.280;10.970;2022-10-16T03:00:21;6.40;;;1.35;;
38567;SDS011;24338;48.280;10.970;2022-10-16T03:02:48;5.40;;;1.40;;
38567;SDS011;24338;48.280;10.970;2022-10-16T03:05:15;3.38;;;0.98;;
38567;SDS011;24338;48.280;10.970;2022-10-16T03:07:42;3.78;;;1.50;;
38567;SDS011;24338;48.280;10.970;2022-10-16T03:10:09;4.13;;;1.02;;
38567;SDS011;24338;48.280;10.970;2022-10-16T03:12:36;3.05;;;1.10;;
38567;SDS011;24338;48.280;10.970;2022-10-16T03:15:03;3.60;;;0.98;;
38567;SDS011;24338;48.280;10.970;2022-10-16T03:17:31;2.58;;;0.90;;
38567;SDS011;24338;48.280;10.970;2022-10-16T03:19:58;1.75;;;0.82;;
38567;SDS011;24338;48.280;10.970;2022-10-16T03:22:25;2.80;;;1.10;;
38567;SDS011;24338;48.280;10.970;2022-10-16T03:24:52;1.92;;;0.80;;
38567;SDS011;24338;48.280;10.970;2022-10-16T03:27:19;1.45;;;0.73;;
38567;SDS011;24338;48.280;10.970;2022-10-16T03:29:45;2.22;;;0.70;;
38567;SDS011;24338;48.280;10.970;2022-10-16T03:32:12;1.80;;;0.82;;
38567;SDS011;24338;48.280;10.970;2022-10-16T03:34:39;3.60;;;1.30;;
38567;SDS011;24338;48.280;10.970;2022-10-16T03:37:06;2.33;;;0.70;;
38567;SDS011;24338;48.280;10.970;2022-10-16T03:39:33;5.82;;;0.93;;
38567;SDS011;24338;48.280;10.970;2022-10-16T03:42:00;3.67;;;1.00;;
38567;SDS011;24338;48.280;10.970;2022-10-16T03:44:27;5.32;;;1.08;;
38567;SDS011;24338;48.280;10.970;2022-10-16T03:46:53;2.67;;;0.73;;
38567;SDS011;24338;48.280;10.970;2022-10-16T03:49:20;3.85;;;0.73;;
38567;SDS011;24338;48.280;10.970;2022-10-16T03:51:47;1.73;;;0.80;;
38567;SDS011;24338;48.280;10.970;2022-10-16T03:54:14;6.38;;;1.33;;
38567;SDS011;24338;48.280;10.970;2022-10-16T03:56:41;4.03;;;1.00;;
38567;SDS011;24338;48.280;10.970;2022-10-16T03:59:08;3.25;;;0.77;;
38567;SDS011;24338;48.280;10.970;2022-10-16T04:01:34;3.13;;;0.95;;
38567;SDS011;24338;48.280;10.970;2022-10-16T04:04:01;2.35;;;1.13;;
38567;SDS011;24338;48.280;10.970;2022-10-16T04:06:28;5.40;;;1.20;;
38567;SDS011;24338;48.280;10.970;2022-10-16T04:08:55;3.65;;;1.20;;
38567;SDS011;24338;48.280;10.970;2022-10-16T04:11:22;2.75;;;0.90;;
38567;SDS011;24338;48.280;10.970;2022-10-16T04:13:49;4.10;;;0.90;;
38567;SDS011;24338;48.280;10.970;2022-10-16T04:16:16;5.25;;;0.80;;
38567;SDS011;24338;48.280;10.970;2022-10-16T04:18:42;2.53;;;0.80;;
38567;SDS011;24338;48.280;10.970;2022-10-16T04:21:09;3.40;;;1.10;;
38567;SDS011;24338;48.280;10.970;2022-10-16T04:23:36;7.70;;;1.30;;
38567;SDS011;24338;48.280;10.970;2022-10-16T04:26:03;5.28;;;1.42;;
38567;SDS011;24338;48.280;10.970;2022-10-16T04:28:30;3.88;;;1.02;;
38567;SDS011;24338;48.280;10.970;2022-10-16T04:30:57;3.72;;;2.08;;
38567;SDS011;24338;48.280;10.970;2022-10-16T04:33:24;4.90;;;1.00;;
38567;SDS011;24338;48.280;10.970;2022-10-16T04:36:00;5.18;;;1.10;;
38567;SDS011;24338;48.280;10.970;2022-10-16T04:38:27;4.60;;;1.27;;
38567;SDS011;24338;48.280;10.970;2022-10-16T04:40:54;3.95;;;0.73;;
38567;SDS011;24338;48.280;10.970;2022-10-16T04:43:21;3.70;;;0.80;;
38567;SDS011;24338;48.280;10.970;2022-10-16T04:45:48;2.55;;;1.10;;
38567;SDS011;24338;48.280;10.970;2022-10-16T04:50:51;3.95;;;1.10;;
38567;SDS011;24338;48.280;10.970;2022-10-16T04:53:20;4.88;;;1.10;;
38567;SDS011;24338;48.280;10.970;2022-10-16T04:55:47;3.10;;;1.23;;
38567;SDS011;24338;48.280;10.970;2022-10-16T04:58:14;3.38;;;1.15;;
38567;SDS011;24338;48.280;10.970;2022-10-16T05:00:41;7.78;;;1.02;;
38567;SDS011;24338;48.280;10.970;2022-10-16T05:03:08;2.78;;;1.00;;
38567;SDS011;24338;48.280;10.970;2022-10-16T05:05:35;2.15;;;0.88;;
38567;SDS011;24338;48.280;10.970;2022-10-16T05:08:03;4.35;;;0.93;;
38567;SDS011;24338;48.280;10.970;2022-10-16T05:10:30;4.25;;;1.10;;
38567;SDS011;24338;48.280;10.970;2022-10-16T05:12:57;2.47;;;0.93;;
38567;SDS011;24338;48.280;10.970;2022-10-16T05:15:24;3.92;;;0.90;;
38567;SDS011;24338;48.280;10.970;2022-10-16T05:17:54;3.60;;;0.93;;
38567;SDS011;24338;48.280;10.970;2022-10-16T05:20:22;2.42;;;1.13;;
38567;SDS011;24338;48.280;10.970;2022-10-16T05:22:49;2.83;;;1.08;;
38567;SDS011;24338;48.280;10.970;2022-10-16T05:25:16;5.97;;;0.65;;
38567;SDS011;24338;48.280;10.970;2022-10-16T05:27:43;3.40;;;0.82;;
38567;SDS011;24338;48.280;10.970;2022-10-16T05:30:12;2.85;;;1.13;;
38567;SDS011;24338;48.280;10.970;2022-10-16T05:32:39;2.03;;;0.77;;
38567;SDS011;24338;48.280;10.970;2022-10-16T05:35:06;3.53;;;0.80;;
38567;SDS011;24338;48.280;10.970;2022-10-16T05:37:37;2.03;;;0.75;;
38567;SDS011;24338;48.280;10.970;2022-10-16T05:40:04;4.45;;;1.42;;
38567;SDS011;24338;48.280;10.970;2022-10-16T05:42:32;2.05;;;0.90;;
38567;SDS011;24338;48.280;10.970;2022-10-16T05:44:58;3.67;;;0.85;;
38567;SDS011;24338;48.280;10.970;2022-10-16T05:47:25;2.97;;;1.00;;
38567;SDS011;24338;48.280;10.970;2022-10-16T05:49:53;3.22;;;0.90;;
38567;SDS011;24338;48.280;10.970;2022-10-16T05:52:20;2.55;;;1.08;;
38567;SDS011;24338;48.280;10.970;2022-10-16T05:54:47;1.95;;;0.90;;
38567;SDS011;24338;48.280;10.970;2022-10-16T05:57:13;1.85;;;0.63;;
38567;SDS011;24338;48.280;10.970;2022-10-16T05:59:40;2.65;;;0.75;;
38567;SDS011;24338;48.280;10.970;2022-10-16T06:02:08;4.35;;;0.73;;
38567;SDS011;24338;48.280;10.970;2022-10-16T06:04:39;5.20;;;0.90;;
38567;SDS011;24338;48.280;10.970;2022-10-16T06:07:05;3.83;;;0.80;;
38567;SDS011;24338;48.280;10.970;2022-10-16T06:09:35;4.25;;;0.85;;
38567;SDS011;24338;48.280;10.970;2022-10-16T06:12:04;2.55;;;0.60;;
38567;SDS011;24338;48.280;10.970;2022-10-16T06:14:32;3.42;;;1.08;;
38567;SDS011;24338;48.280;10.970;2022-10-16T06:16:59;2.70;;;0.85;;
38567;SDS011;24338;48.280;10.970;2022-10-16T06:19:28;1.75;;;0.73;;
38567;SDS011;24338;48.280;10.970;2022-10-16T06:21:55;2.35;;;0.98;;
38567;SDS011;24338;48.280;10.970;2022-10-16T06:24:25;3.47;;;0.90;;
38567;SDS011;24338;48.280;10.970;2022-10-16T06:26:52;2.70;;;1.10;;
38567;SDS011;24338;48.280;10.970;2022-10-16T06:29:19;1.67;;;0.85;;
38567;SDS011;24338;48.280;10.970;2022-10-16T06:31:45;2.38;;;0.70;;
38567;SDS011;24338;48.280;10.970;2022-10-16T06:34:12;2.13;;;0.70;;
38567;SDS011;24338;48.280;10.970;2022-10-16T06:36:39;2.95;;;0.98;;
38567;SDS011;24338;48.280;10.970;2022-10-16T06:39:07;2.83;;;0.95;;
38567;SDS011;24338;48.280;10.970;2022-10-16T06:41:34;4.75;;;1.23;;
38567;SDS011;24338;48.280;10.970;2022-10-16T06:44:01;1.63;;;0.80;;
38567;SDS011;24338;48.280;10.970;2022-10-16T06:46:31;9.93;;;1.15;;
38567;SDS011;24338;48.280;10.970;2022-10-16T06:48:58;2.58;;;1.38;;
38567;SDS011;24338;48.280;10.970;2022-10-16T06:51:25;2.80;;;0.80;;
38567;SDS011;24338;48.280;10.970;2022-10-16T06:53:52;2.80;;;0.80;;
38567;SDS011;24338;48.280;10.970;2022-10-16T06:56:30;3.38;;;1.20;;
38567;SDS011;24338;48.280;10.970;2022-10-16T06:58:58;1.83;;;0.90;;
38567;SDS011;24338;48.280;10.970;2022-10-16T07:01:26;3.08;;;1.35;;
38567;SDS011;24338;48.280;10.970;2022-10-16T07:03:56;2.17;;;1.00;;
38567;SDS011;24338;48.280;10.970;2022-10-16T07:06:26;3.58;;;1.10;;
38567;SDS011;24338;48.280;10.970;2022-10-16T07:08:56;2.72;;;1.00;;
38567;SDS011;24338;48.280;10.970;2022-10-16T07:11:23;4.70;;;1.20;;
38567;SDS011;24338;48.280;10.970;2022-10-16T07:13:50;2.70;;;0.90;;
38567;SDS011;24338;48.280;10.970;2022-10-16T07:16:25;2.17;;;1.10;;
38567;SDS011;24338;48.280;10.970;2022-10-16T07:18:53;3.65;;;1.45;;
38567;SDS011;24338;48.280;10.970;2022-10-16T07:21:30;2.15;;;0.88;;
38567;SDS011;24338;48.280;10.970;2022-10-16T07:24:02;1.73;;;0.82;;
38567;SDS011;24338;48.280;10.970;2022-10-16T07:26:33;4.18;;;1.20;;
38567;SDS011;24338;48.280;10.970;2022-10-16T07:29:01;3.03;;;1.02;;
38567;SDS011;24338;48.280;10.970;2022-10-16T07:31:29;2.67;;;1.02;;
38567;SDS011;24338;48.280;10.970;2022-10-16T07:33:57;5.05;;;2.20;;
38567;SDS011;24338;48.280;10.970;2022-10-16T07:36:25;2.08;;;0.90;;
38567;SDS011;24338;48.280;10.970;2022-10-16T07:38:52;2.05;;;0.90;;
38567;SDS011;24338;48.280;10.970;2022-10-16T07:41:24;2.03;;;0.95;;
38567;SDS011;24338;48.280;10.970;2022-10-16T07:43:52;2.67;;;0.60;;
38567;SDS011;24338;48.280;10.970;2022-10-16T07:46:20;2.83;;;0.90;;
38567;SDS011;24338;48.280;10.970;2022-10-16T07:48:48;1.95;;;0.77;;
38567;SDS011;24338;48.280;10.970;2022-10-16T07:51:16;2.13;;;0.93;;
38567;SDS011;24338;48.280;10.970;2022-10-16T07:53:45;2.42;;;0.88;;
38567;SDS011;24338;48.280;10.970;2022-10-16T07:56:13;1.95;;;1.02;;
38567;SDS011;24338;48.280;10.970;2022-10-16T07:58:41;3.67;;;0.98;;
38567;SDS011;24338;48.280;10.970;2022-10-16T08:01:09;6.60;;;1.05;;
38567;SDS011;24338;48.280;10.970;2022-10-16T08:03:44;2.03;;;0.95;;
38567;SDS011;24338;48.280;10.970;2022-10-16T08:08:39;1.88;;;0.60;;
38567;SDS011;24338;48.280;10.970;2022-10-16T08:11:06;4.35;;;0.75;;
38567;SDS011;24338;48.280;10.970;2022-10-16T08:13:34;1.45;;;0.65;;
38567;SDS011;24338;48.280;10.970;2022-10-16T08:16:01;6.13;;;0.70;;
38567;SDS011;24338;48.280;10.970;2022-10-16T08:18:35;1.88;;;0.60;;
38567;SDS011;24338;48.280;10.970;2022-10-16T08:21:03;1.50;;;0.60;;
38567;SDS011;24338;48.280;10.970;2022-10-16T08:23:31;1.38;;;0.60;;
38567;SDS011;24338;48.280;10.970;2022-10-16T08:26:03;2.70;;;0.50;;
38567;SDS011;24338;48.280;10.970;2022-10-16T08:28:31;1.33;;;0.43;;
38567;SDS011;24338;48.280;10.970;2022-10-16T08:31:08;2.58;;;0.93;;
38567;SDS011;24338;48.280;10.970;2022-10-16T08:33:37;3.00;;;0.60;;
38567;SDS011;24338;48.280;10.970;2022-10-16T08:36:05;4.40;;;0.70;;
38567;SDS011;24338;48.280;10.970;2022-10-16T08:38:33;7.75;;;1.35;;
38567;SDS011;24338;48.280;10.970;2022-10-16T08:41:02;1.23;;;0.40;;
38567;SDS011;24338;48.280;10.970;2022-10-16T08:46:55;3.05;;;0.65;;
38567;SDS011;24338;48.280;10.970;2022-10-16T08:49:27;1.33;;;0.70;;
38567;SDS011;24338;48.280;10.970;2022-10-16T08:51:54;2.03;;;0.50;;
38567;SDS011;24338;48.280;10.970;2022-10-16T08:54:29;1.40;;;0.50;;
38567;SDS011;24338;48.280;10.970;2022-10-16T08:57:01;3.67;;;0.60;;
38567;SDS011;24338;48.280;10.970;2022-10-16T08:59:48;3.38;;;0.70;;
38567;SDS011;24338;48.280;10.970;2022-10-16T09:02:32;1.42;;;0.40;;
38567;SDS011;24338;48.280;10.970;2022-10-16T09:05:17;2.28;;;0.80;;
38567;SDS011;24338;48.280;10.970;2022-10-16T09:08:20;2.83;;;0.43;;
38567;SDS011;24338;48.280;10.970;2022-10-16T09:16:34;2.53;;;0.50;;
38567;SDS011;24338;48.280;10.970;2022-10-16T09:21:53;1.45;;;0.57;;
38567;SDS011;24338;48.280;10.970;2022-10-16T09:24:22;2.38;;;0.60;;
38567;SDS011;24338;48.280;10.970;2022-10-16T09:26:54;4.65;;;0.68;;
38567;SDS011;24338;48.280;10.970;2022-10-16T09:29:21;3.53;;;0.75;;
38567;SDS011;24338;48.280;10.970;2022-10-16T09:31:52;1.60;;;0.60;;
38567;SDS011;24338;48.280;10.970;2022-10-16T09:36:56;0.77;;;0.35;;
38567;SDS011;24338;48.280;10.970;2022-10-16T09:39:25;1.63;;;0.40;;
38567;SDS011;24338;48.280;10.970;2022-10-16T09:41:52;1.20;;;0.60;;
38567;SDS011;24338;48.280;10.970;2022-10-16T09:44:23;2.65;;;0.60;;
38567;SDS011;24338;48.280;10.970;2022-10-16T09:47:04;2.00;;;0.45;;
38567;SDS011;24338;48.280;10.970;2022-10-16T09:50:13;1.08;;;0.38;;
38567;SDS011;24338;48.280;10.970;2022-10-16T09:52:47;1.90;;;0.57;;
38567;SDS011;24338;48.280;10.970;2022-10-16T09:55:17;1.13;;;0.50;;
38567;SDS011;24338;48.280;10.970;2022-10-16T10:00:17;2.65;;;0.63;;
38567;SDS011;24338;48.280;10.970;2022-10-16T10:02:45;1.48;;;0.40;;
38567;SDS011;24338;48.280;10.970;2022-10-16T10:05:25;2.53;;;0.80;;
38567;SDS011;24338;48.280;10.970;2022-10-16T10:07:58;2.55;;;0.50;;
38567;SDS011;24338;48.280;10.970;2022-10-16T10:10:37;1.35;;;0.40;;
38567;SDS011;24338;48.280;10.970;2022-10-16T10:13:17;2.22;;;0.50;;
38567;SDS011;24338;48.280;10.970;2022-10-16T10:15:48;1.48;;;0.50;;
38567;SDS011;24338;48.280;10.970;2022-10-16T10:18:16;1.33;;;0.32;;
38567;SDS011;24338;48.280;10.970;2022-10-16T10:20:46;3.00;;;0.50;;
38567;SDS011;24338;48.280;10.970;2022-10-16T10:23:25;0.98;;;0.38;;
38567;SDS011;24338;48.280;10.970;2022-10-16T10:25:55;1.65;;;0.40;;
38567;SDS011;24338;48.280;10.970;2022-10-16T10:33:46;1.38;;;0.40;;
38567;SDS011;24338;48.280;10.970;2022-10-16T10:39:15;1.52;;;0.30;;
38567;SDS011;24338;48.280;10.970;2022-10-16T10:58:21;1.30;;;0.50;;
38567;SDS011;24338;48.280;10.970;2022-10-16T11:01:12;1.75;;;0.30;;
38567;SDS011;24338;48.280;10.970;2022-10-16T11:04:01;1.35;;;0.20;;
38567;SDS011;24338;48.280;10.970;2022-10-16T11:06:52;0.70;;;0.25;;
38567;SDS011;24338;48.280;10.970;2022-10-16T11:09:31;2.72;;;1.35;;
38567;SDS011;24338;48.280;10.970;2022-10-16T11:12:14;0.68;;;0.28;;
38567;SDS011;24338;48.280;10.970;2022-10-16T11:15:02;1.65;;;0.47;;
38567;SDS011;24338;48.280;10.970;2022-10-16T11:22:55;1.33;;;0.35;;
38567;SDS011;24338;48.280;10.970;2022-10-16T11:25:30;0.93;;;0.20;;
38567;SDS011;24338;48.280;10.970;2022-10-16T11:30:47;1.63;;;0.20;;
38567;SDS011;24338;48.280;10.970;2022-10-16T11:35:49;1.55;;;0.30;;
38567;SDS011;24338;48.280;10.970;2022-10-16T11:38:42;2.47;;;0.35;;
38567;SDS011;24338;48.280;10.970;2022-10-16T11:41:20;1.05;;;0.40;;
38567;SDS011;24338;48.280;10.970;2022-10-16T11:43:52;3.05;;;0.50;;
38567;SDS011;24338;48.280;10.970;2022-10-16T11:46:38;1.58;;;0.40;;
38567;SDS011;24338;48.280;10.970;2022-10-16T11:49:32;2.22;;;0.22;;
38567;SDS011;24338;48.280;10.970;2022-10-16T11:52:22;2.80;;;0.40;;
38567;SDS011;24338;48.280;10.970;2022-10-16T11:57:45;1.23;;;0.40;;
38567;SDS011;24338;48.280;10.970;2022-10-16T12:08:34;1.85;;;0.30;;
38567;SDS011;24338;48.280;10.970;2022-10-16T12:11:09;2.53;;;0.47;;
38567;SDS011;24338;48.280;10.970;2022-10-16T12:13:50;2.63;;;0.70;;
38567;SDS011;24338;48.280;10.970;2022-10-16T12:18:44;1.70;;;0.30;;
38567;SDS011;24338;48.280;10.970;2022-10-16T12:21:13;2.10;;;0.60;;
38567;SDS011;24338;48.280;10.970;2022-10-16T12:23:49;0.88;;;0.30;;
38567;SDS011;24338;48.280;10.970;2022-10-16T12:26:36;1.95;;;0.30;;
38567;SDS011;24338;48.280;10.970;2022-10-16T12:31:39;1.25;;;0.50;;
38567;SDS011;24338;48.280;10.970;2022-10-16T12:36:53;0.82;;;0.40;;
38567;SDS011;24338;48.280;10.970;2022-10-16T12:39:22;0.50;;;0.28;;
38567;SDS011;24338;48.280;10.970;2022-10-16T12:42:01;2.25;;;0.55;;
38567;SDS011;24338;48.280;10.970;2022-10-16T12:44:45;2.03;;;0.50;;
38567;SDS011;24338;48.280;10.970;2022-10-16T12:47:23;0.82;;;0.38;;
38567;SDS011;24338;48.280;10.970;2022-10-16T12:49:54;4.38;;;0.70;;
38567;SDS011;24338;48.280;10.970;2022-10-16T12:52:28;1.55;;;0.35;;
38567;SDS011;24338;48.280;10.970;2022-10-16T12:55:03;2.00;;;0.30;;
38567;SDS011;24338;48.280;10.970;2022-10-16T13:06:08;1.00;;;0.30;;
38567;SDS011;24338;48.280;10.970;2022-10-16T13:17:16;2.10;;;0.93;;
38567;SDS011;24338;48.280;10.970;2022-10-16T13:20:24;2.13;;;0.90;;
38567;SDS011;24338;48.280;10.970;2022-10-16T13:25:56;2.10;;;0.40;;
38567;SDS011;24338;48.280;10.970;2022-10-16T13:28:30;1.00;;;0.30;;
38567;SDS011;24338;48.280;10.970;2022-10-16T13:31:01;0.55;;;0.20;;
38567;SDS011;24338;48.280;10.970;2022-10-16T13:33:40;7.32;;;2.67;;
38567;SDS011;24338;48.280;10.970;2022-10-16T13:36:21;3.57;;;1.50;;
38567;SDS011;24338;48.280;10.970;2022-10-16T13:39:16;1.58;;;0.75;;
38567;SDS011;24338;48.280;10.970;2022-10-16T13:42:00;1.98;;;0.40;;
38567;SDS011;24338;48.280;10.970;2022-10-16T13:44:44;1.17;;;0.32;;
38567;SDS011;24338;48.280;10.970;2022-10-16T13:47:23;4.45;;;0.40;;
38567;SDS011;24338;48.280;10.970;2022-10-16T13:50:09;2.15;;;0.30;;
38567;SDS011;24338;48.280;10.970;2022-10-16T13:52:42;1.15;;;0.38;;
38567;SDS011;24338;48.280;10.970;2022-10-16T13:55:15;2.03;;;0.40;;
38567;SDS011;24338;48.280;10.970;2022-10-16T13:57:50;1.30;;;0.30;;
38567;SDS011;24338;48.280;10.970;2022-10-16T14:00:22;1.13;;;0.30;;
38567;SDS011;24338;48.280;10.970;2022-10-16T14:03:03;3.65;;;0.57;;
38567;SDS011;24338;48.280;10.970;2022-10-16T14:06:22;1.23;;;0.20;;
38567;SDS011;24338;48.280;10.970;2022-10-16T14:08:32;1.73;;;0.28;;
38567;SDS011;24338;48.280;10.970;2022-10-16T14:11:02;1.23;;;0.35;;
38567;SDS011;24338;48.280;10.970;2022-10-16T14:13:33;3.65;;;0.30;;
38567;SDS011;24338;48.280;10.970;2022-10-16T14:16:07;0.80;;;0.30;;
38567;SDS011;24338;48.280;10.970;2022-10-16T14:18:44;2.92;;;0.30;;
38567;SDS011;24338;48.280;10.970;2022-10-16T14:21:18;2.30;;;0.50;;
38567;SDS011;24338;48.280;10.970;2022-10-16T14:23:46;1.25;;;0.30;;
38567;SDS011;24338;48.280;10.970;2022-10-16T14:26:17;1.00;;;0.30;;
38567;SDS011;24338;48.280;10.970;2022-10-16T14:28:48;0.43;;;0.25;;
38567;SDS011;24338;48.280;10.970;2022-10-16T14:31:31;0.95;;;0.20;;
38567;SDS011;24338;48.280;10.970;2022-10-16T14:33:59;0.38;;;0.20;;
38567;SDS011;24338;48.280;10.970;2022-10-16T14:36:27;1.33;;;0.30;;
38567;SDS011;24338;48.280;10.970;2022-10-16T14:41:25;0.75;;;0.30;;
38567;SDS011;24338;48.280;10.970;2022-10-16T14:43:56;1.80;;;0.20;;
38567;SDS011;24338;48.280;10.970;2022-10-16T14:46:36;4.32;;;0.45;;
38567;SDS011;24338;48.280;10.970;2022-10-16T14:49:13;1.45;;;0.30;;
38567;SDS011;24338;48.280;10.970;2022-10-16T14:51:44;6.13;;;0.60;;
38567;SDS011;24338;48.280;10.970;2022-10-16T14:54:15;2.25;;;0.30;;
38567;SDS011;24338;48.280;10.970;2022-10-16T14:56:48;0.82;;;0.20;;
38567;SDS011;24338;48.280;10.970;2022-10-16T14:59:31;0.60;;;0.20;;
38567;SDS011;24338;48.280;10.970;2022-10-16T15:02:09;1.98;;;0.32;;
38567;SDS011;24338;48.280;10.970;2022-10-16T15:04:45;0.60;;;0.30;;
38567;SDS011;24338;48.280;10.970;2022-10-16T15:07:13;1.55;;;0.40;;
38567;SDS011;24338;48.280;10.970;2022-10-16T15:09:39;1.50;;;0.30;;
38567;SDS011;24338;48.280;10.970;2022-10-16T15:12:14;5.57;;;0.82;;
38567;SDS011;24338;48.280;10.970;2022-10-16T15:14:41;3.53;;;0.70;;
38567;SDS011;24338;48.280;10.970;2022-10-16T15:17:09;2.15;;;0.90;;
38567;SDS011;24338;48.280;10.970;2022-10-16T15:19:37;5.20;;;0.73;;
38567;SDS011;24338;48.280;10.970;2022-10-16T15:22:04;1.40;;;0.70;;
38567;SDS011;24338;48.280;10.970;2022-10-16T15:24:30;2.90;;;0.95;;
38567;SDS011;24338;48.280;10.970;2022-10-16T15:26:57;2.47;;;0.80;;
38567;SDS011;24338;48.280;10.970;2022-10-16T15:29:24;1.90;;;0.57;;
38567;SDS011;24338;48.280;10.970;2022-10-16T15:31:51;1.38;;;0.43;;
38567;SDS011;24338;48.280;10.970;2022-10-16T15:34:18;1.85;;;0.68;;
38567;SDS011;24338;48.280;10.970;2022-10-16T15:36:45;1.40;;;0.40;;
38567;SDS011;24338;48.280;10.970;2022-10-16T15:39:14;3.35;;;0.40;;
38567;SDS011;24338;48.280;10.970;2022-10-16T15:41:42;7.32;;;1.85;;
38567;SDS011;24338;48.280;10.970;2022-10-16T15:44:10;2.28;;;0.80;;
38567;SDS011;24338;48.280;10.970;2022-10-16T15:46:40;1.73;;;0.60;;
38567;SDS011;24338;48.280;10.970;2022-10-16T15:49:07;1.85;;;0.65;;
38567;SDS011;24338;48.280;10.970;2022-10-16T15:51:37;2.50;;;0.90;;
38567;SDS011;24338;48.280;10.970;2022-10-16T15:54:06;1.50;;;0.60;;
38567;SDS011;24338;48.280;10.970;2022-10-16T15:56:33;1.23;;;0.50;;
38567;SDS011;24338;48.280;10.970;2022-10-16T15:59:03;2.33;;;0.70;;
38567;SDS011;24338;48.280;10.970;2022-10-16T16:01:32;1.35;;;0.80;;
38567;SDS011;24338;48.280;10.970;2022-10-16T16:04:01;1.65;;;0.60;;
38567;SDS011;24338;48.280;10.970;2022-10-16T16:06:45;4.13;;;0.50;;
38567;SDS011;24338;48.280;10.970;2022-10-16T16:09:12;2.30;;;0.50;;
38567;SDS011;24338;48.280;10.970;2022-10-16T16:11:40;1.55;;;0.60;;
38567;SDS011;24338;48.280;10.970;2022-10-16T16:14:11;0.95;;;0.50;;
38567;SDS011;24338;48.280;10.970;2022-10-16T16:19:07;1.50;;;0.60;;
38567;SDS011;24338;48.280;10.970;2022-10-16T16:21:37;2.15;;;0.60;;
38567;SDS011;24338;48.280;10.970;2022-10-16T16:24:04;2.60;;;0.60;;
38567;SDS011;24338;48.280;10.970;2022-10-16T16:26:35;2.58;;;0.98;;
38567;SDS011;24338;48.280;10.970;2022-10-16T16:29:05;3.72;;;0.68;;
38567;SDS011;24338;48.280;10.970;2022-10-16T16:31:32;4.53;;;1.27;;
38567;SDS011;24338;48.280;10.970;2022-10-16T16:34:01;4.57;;;0.93;;
38567;SDS011;24338;48.280;10.970;2022-10-16T16:36:27;4.90;;;2.03;;
38567;SDS011;24338;48.280;10.970;2022-10-16T16:38:55;5.05;;;2.60;;
38567;SDS011;24338;48.280;10.970;2022-10-16T16:41:24;6.10;;;2.00;;
38567;SDS011;24338;48.280;10.970;2022-10-16T16:43:53;8.55;;;1.55;;
38567;SDS011;24338;48.280;10.970;2022-10-16T16:46:21;4.97;;;2.00;;
38567;SDS011;24338;48.280;10.970;2022-10-16T16:51:22;4.70;;;1.45;;
38567;SDS011;24338;48.280;10.970;2022-10-16T16:53:50;5.93;;;1.48;;
38567;SDS011;24338;48.280;10.970;2022-10-16T16:56:18;8.48;;;4.30;;
38567;SDS011;24338;48.280;10.970;2022-10-16T16:58:46;10.77;;;3.78;;
38567;SDS011;24338;48.280;10.970;2022-10-16T17:01:14;4.57;;;2.97;;
38567;SDS011;24338;48.280;10.970;2022-10-16T17:06:16;6.57;;;2.67;;